sensor_id;sensor_type;location;lat;lon;timestamp;P1;durP1;ratioP1;P2;durP2;ratioP2
5959;SDS011;3006;50.956;7.002;2022-07-03T00:02:09;5.10;;;2.27;;
5959;SDS011;3006;50.956;7.002;2022-07-03T00:04:38;5.13;;;2.53;;
5959;SDS011;3006;50.956;7.002;2022-07-03T00:07:06;5.23;;;2.63;;
5959;SDS011;3006;50.956;7.002;2022-07-03T00:09:35;4.83;;;2.20;;
5959;SDS011;3006;50.956;7.002;2022-07-03T00:12:05;3.73;;;2.93;;
5959;SDS011;3006;50.956;7.002;2022-07-03T00:14:33;9.27;;;2.63;;
5959;SDS011;3006;50.956;7.002;2022-07-03T00:17:01;4.80;;;2.77;;
5959;SDS011;3006;50.956;7.002;2022-07-03T00:19:31;11.30;;;4.30;;
5959;SDS011;3006;50.956;7.002;2022-07-03T00:22:01;10.03;;;5.10;;
5959;SDS011;3006;50.956;7.002;2022-07-03T00:24:32;3.90;;;2.80;;
5959;SDS011;3006;50.956;7.002;2022-07-03T00:27:05;3.77;;;2.70;;
5959;SDS011;3006;50.956;7.002;2022-07-03T00:29:37;6.83;;;2.50;;
5959;SDS011;3006;50.956;7.002;2022-07-03T00:32:06;7.07;;;3.83;;
5959;SDS011;3006;50.956;7.002;2022-07-03T00:34:38;6.60;;;3.13;;
5959;SDS011;3006;50.956;7.002;2022-07-03T00:37:09;7.60;;;2.50;;
5959;SDS011;3006;50.956;7.002;2022-07-03T00:39:38;5.83;;;2.60;;
5959;SDS011;3006;50.956;7.002;2022-07-03T00:42:08;5.70;;;3.60;;
5959;SDS011;3006;50.956;7.002;2022-07-03T00:44:42;6.53;;;2.20;;
5959;SDS011;3006;50.956;7.002;2022-07-03T00:47:12;3.80;;;2.30;;
5959;SDS011;3006;50.956;7.002;2022-07-03T00:49:44;7.60;;;2.53;;
5959;SDS011;3006;50.956;7.002;2022-07-03T00:52:14;6.90;;;2.50;;
5959;SDS011;3006;50.956;7.002;2022-07-03T00:54:43;5.20;;;2.67;;
5959;SDS011;3006;50.956;7.002;2022-07-03T00:57:13;7.30;;;2.90;;
5959;SDS011;3006;50.956;7.002;2022-07-03T00:59:42;5.83;;;2.40;;
5959;SDS011;3006;50.956;7.002;2022-07-03T01:02:13;3.87;;;2.80;;
5959;SDS011;3006;50.956;7.002;2022-07-03T01:04:50;5.60;;;2.63;;
5959;SDS011;3006;50.956;7.002;2022-07-03T01:07:25;4.50;;;2.73;;
5959;SDS011;3006;50.956;7.002;2022-07-03T01:10:07;9.70;;;3.70;;
5959;SDS011;3006;50.956;7.002;2022-07-03T01:12:44;5.87;;;2.57;;
5959;SDS011;3006;50.956;7.002;2022-07-03T01:15:26;8.60;;;3.60;;
5959;SDS011;3006;50.956;7.002;2022-07-03T01:18:03;5.70;;;2.57;;
5959;SDS011;3006;50.956;7.002;2022-07-03T01:20:43;6.33;;;2.63;;
5959;SDS011;3006;50.956;7.002;2022-07-03T01:23:18;7.93;;;3.17;;
5959;SDS011;3006;50.956;7.002;2022-07-03T01:25:53;9.77;;;3.10;;
5959;SDS011;3006;50.956;7.002;2022-07-03T01:28:22;6.27;;;3.80;;
5959;SDS011;3006;50.956;7.002;2022-07-03T01:30:53;7.17;;;3.57;;
5959;SDS011;3006;50.956;7.002;2022-07-03T01:33:23;5.33;;;3.27;;
5959;SDS011;3006;50.956;7.002;2022-07-03T01:35:58;7.10;;;3.40;;
5959;SDS011;3006;50.956;7.002;2022-07-03T01:38:35;6.67;;;3.13;;
5959;SDS011;3006;50.956;7.002;2022-07-03T01:41:06;7.43;;;3.50;;
5959;SDS011;3006;50.956;7.002;2022-07-03T01:43:36;4.50;;;3.20;;
5959;SDS011;3006;50.956;7.002;2022-07-03T01:46:06;4.37;;;2.97;;
5959;SDS011;3006;50.956;7.002;2022-07-03T01:48:34;12.40;;;3.57;;
5959;SDS011;3006;50.956;7.002;2022-07-03T01:51:04;6.50;;;3.80;;
5959;SDS011;3006;50.956;7.002;2022-07-03T01:53:32;8.30;;;3.10;;
5959;SDS011;3006;50.956;7.002;2022-07-03T01:56:01;4.00;;;2.67;;
5959;SDS011;3006;50.956;7.002;2022-07-03T01:58:32;4.83;;;3.07;;
5959;SDS011;3006;50.956;7.002;2022-07-03T02:01:01;5.90;;;3.60;;
5959;SDS011;3006;50.956;7.002;2022-07-03T02:03:34;9.10;;;4.60;;
5959;SDS011;3006;50.956;7.002;2022-07-03T02:06:09;6.03;;;3.30;;
5959;SDS011;3006;50.956;7.002;2022-07-03T02:08:47;4.63;;;3.43;;
5959;SDS011;3006;50.956;7.002;2022-07-03T02:11:43;5.83;;;3.20;;
5959;SDS011;3006;50.956;7.002;2022-07-03T02:14:16;5.00;;;3.20;;
5959;SDS011;3006;50.956;7.002;2022-07-03T02:16:50;4.40;;;3.10;;
5959;SDS011;3006;50.956;7.002;2022-07-03T02:19:34;4.70;;;2.87;;
5959;SDS011;3006;50.956;7.002;2022-07-03T02:22:09;6.87;;;3.40;;
5959;SDS011;3006;50.956;7.002;2022-07-03T02:24:41;7.00;;;3.10;;
5959;SDS011;3006;50.956;7.002;2022-07-03T02:27:12;7.40;;;3.07;;
5959;SDS011;3006;50.956;7.002;2022-07-03T02:29:47;3.40;;;2.87;;
5959;SDS011;3006;50.956;7.002;2022-07-03T02:32:20;5.03;;;3.50;;
5959;SDS011;3006;50.956;7.002;2022-07-03T02:34:52;4.83;;;3.40;;
5959;SDS011;3006;50.956;7.002;2022-07-03T02:37:28;5.20;;;3.17;;
5959;SDS011;3006;50.956;7.002;2022-07-03T02:40:03;4.20;;;3.03;;
5959;SDS011;3006;50.956;7.002;2022-07-03T02:42:37;5.93;;;3.20;;
5959;SDS011;3006;50.956;7.002;2022-07-03T02:45:11;5.43;;;3.40;;
5959;SDS011;3006;50.956;7.002;2022-07-03T02:47:47;8.10;;;3.47;;
5959;SDS011;3006;50.956;7.002;2022-07-03T02:50:25;9.73;;;3.43;;
5959;SDS011;3006;50.956;7.002;2022-07-03T02:52:59;12.47;;;3.70;;
5959;SDS011;3006;50.956;7.002;2022-07-03T02:55:42;6.50;;;4.20;;
5959;SDS011;3006;50.956;7.002;2022-07-03T03:01:24;8.70;;;3.90;;
5959;SDS011;3006;50.956;7.002;2022-07-03T03:04:07;4.23;;;3.17;;
5959;SDS011;3006;50.956;7.002;2022-07-03T03:06:40;7.27;;;3.30;;
5959;SDS011;3006;50.956;7.002;2022-07-03T03:09:14;9.07;;;3.30;;
5959;SDS011;3006;50.956;7.002;2022-07-03T03:11:48;6.80;;;3.77;;
5959;SDS011;3006;50.956;7.002;2022-07-03T03:14:19;15.57;;;3.90;;
5959;SDS011;3006;50.956;7.002;2022-07-03T03:16:51;8.70;;;3.70;;
5959;SDS011;3006;50.956;7.002;2022-07-03T03:19:21;6.87;;;3.40;;
5959;SDS011;3006;50.956;7.002;2022-07-03T03:21:53;4.43;;;3.20;;
5959;SDS011;3006;50.956;7.002;2022-07-03T03:24:26;9.20;;;3.80;;
5959;SDS011;3006;50.956;7.002;2022-07-03T03:26:56;5.20;;;3.30;;
5959;SDS011;3006;50.956;7.002;2022-07-03T03:29:25;5.93;;;3.47;;
5959;SDS011;3006;50.956;7.002;2022-07-03T03:31:55;4.73;;;3.33;;
5959;SDS011;3006;50.956;7.002;2022-07-03T03:34:29;4.00;;;2.90;;
5959;SDS011;3006;50.956;7.002;2022-07-03T03:36:59;5.30;;;3.40;;
5959;SDS011;3006;50.956;7.002;2022-07-03T03:39:27;7.57;;;3.90;;
5959;SDS011;3006;50.956;7.002;2022-07-03T03:41:56;3.87;;;2.90;;
5959;SDS011;3006;50.956;7.002;2022-07-03T03:44:24;5.57;;;3.40;;
5959;SDS011;3006;50.956;7.002;2022-07-03T03:46:52;4.83;;;3.03;;
5959;SDS011;3006;50.956;7.002;2022-07-03T03:49:23;5.53;;;2.97;;
5959;SDS011;3006;50.956;7.002;2022-07-03T03:51:51;5.73;;;2.80;;
5959;SDS011;3006;50.956;7.002;2022-07-03T03:54:19;8.07;;;3.10;;
5959;SDS011;3006;50.956;7.002;2022-07-03T03:56:47;5.87;;;2.80;;
5959;SDS011;3006;50.956;7.002;2022-07-03T03:59:15;5.57;;;2.93;;
5959;SDS011;3006;50.956;7.002;2022-07-03T04:01:44;4.77;;;3.10;;
5959;SDS011;3006;50.956;7.002;2022-07-03T04:04:12;6.20;;;2.97;;
5959;SDS011;3006;50.956;7.002;2022-07-03T04:06:45;3.50;;;2.93;;
5959;SDS011;3006;50.956;7.002;2022-07-03T04:09:28;7.10;;;3.20;;
5959;SDS011;3006;50.956;7.002;2022-07-03T04:11:56;8.03;;;3.90;;
5959;SDS011;3006;50.956;7.002;2022-07-03T04:14:25;6.20;;;3.50;;
5959;SDS011;3006;50.956;7.002;2022-07-03T04:16:53;3.23;;;2.93;;
5959;SDS011;3006;50.956;7.002;2022-07-03T04:19:21;5.97;;;3.30;;
5959;SDS011;3006;50.956;7.002;2022-07-03T04:21:51;6.10;;;3.33;;
5959;SDS011;3006;50.956;7.002;2022-07-03T04:24:19;8.87;;;3.47;;
5959;SDS011;3006;50.956;7.002;2022-07-03T04:26:47;6.40;;;2.97;;
5959;SDS011;3006;50.956;7.002;2022-07-03T04:29:15;6.30;;;3.20;;
5959;SDS011;3006;50.956;7.002;2022-07-03T04:31:43;5.63;;;3.20;;
5959;SDS011;3006;50.956;7.002;2022-07-03T04:34:11;7.83;;;3.27;;
5959;SDS011;3006;50.956;7.002;2022-07-03T04:36:39;7.90;;;2.97;;
5959;SDS011;3006;50.956;7.002;2022-07-03T04:39:09;6.63;;;3.13;;
5959;SDS011;3006;50.956;7.002;2022-07-03T04:41:37;8.77;;;3.30;;
5959;SDS011;3006;50.956;7.002;2022-07-03T04:44:05;5.30;;;3.13;;
5959;SDS011;3006;50.956;7.002;2022-07-03T04:46:33;7.30;;;3.07;;
5959;SDS011;3006;50.956;7.002;2022-07-03T04:49:01;4.73;;;2.90;;
5959;SDS011;3006;50.956;7.002;2022-07-03T04:51:30;4.40;;;2.93;;
5959;SDS011;3006;50.956;7.002;2022-07-03T04:53:58;6.20;;;4.03;;
5959;SDS011;3006;50.956;7.002;2022-07-03T04:56:27;4.20;;;3.20;;
5959;SDS011;3006;50.956;7.002;2022-07-03T04:58:55;8.80;;;3.50;;
5959;SDS011;3006;50.956;7.002;2022-07-03T05:01:23;6.70;;;3.57;;
5959;SDS011;3006;50.956;7.002;2022-07-03T05:03:52;14.10;;;3.27;;
5959;SDS011;3006;50.956;7.002;2022-07-03T05:06:20;3.30;;;3.00;;
5959;SDS011;3006;50.956;7.002;2022-07-03T05:08:48;10.40;;;4.20;;
5959;SDS011;3006;50.956;7.002;2022-07-03T05:11:16;12.00;;;2.63;;
5959;SDS011;3006;50.956;7.002;2022-07-03T05:13:46;7.40;;;3.70;;
5959;SDS011;3006;50.956;7.002;2022-07-03T05:16:14;8.80;;;2.87;;
5959;SDS011;3006;50.956;7.002;2022-07-03T05:18:42;6.97;;;3.90;;
5959;SDS011;3006;50.956;7.002;2022-07-03T05:21:10;5.47;;;3.20;;
5959;SDS011;3006;50.956;7.002;2022-07-03T05:23:38;5.27;;;3.07;;
5959;SDS011;3006;50.956;7.002;2022-07-03T05:26:06;4.20;;;3.20;;
5959;SDS011;3006;50.956;7.002;2022-07-03T05:28:34;6.40;;;4.20;;
5959;SDS011;3006;50.956;7.002;2022-07-03T05:31:04;10.00;;;3.53;;
5959;SDS011;3006;50.956;7.002;2022-07-03T05:33:32;4.00;;;3.53;;
5959;SDS011;3006;50.956;7.002;2022-07-03T05:36:00;4.60;;;3.60;;
5959;SDS011;3006;50.956;7.002;2022-07-03T05:38:29;6.50;;;3.30;;
5959;SDS011;3006;50.956;7.002;2022-07-03T05:41:15;8.03;;;3.30;;
5959;SDS011;3006;50.956;7.002;2022-07-03T05:43:43;5.93;;;3.80;;
5959;SDS011;3006;50.956;7.002;2022-07-03T05:46:13;7.30;;;3.20;;
5959;SDS011;3006;50.956;7.002;2022-07-03T05:48:41;7.30;;;3.27;;
5959;SDS011;3006;50.956;7.002;2022-07-03T05:51:09;4.63;;;2.97;;
5959;SDS011;3006;50.956;7.002;2022-07-03T05:53:37;5.33;;;3.43;;
5959;SDS011;3006;50.956;7.002;2022-07-03T05:56:05;7.67;;;3.90;;
5959;SDS011;3006;50.956;7.002;2022-07-03T05:58:33;7.73;;;3.90;;
5959;SDS011;3006;50.956;7.002;2022-07-03T06:01:02;8.27;;;4.40;;
5959;SDS011;3006;50.956;7.002;2022-07-03T06:03:31;4.37;;;3.27;;
5959;SDS011;3006;50.956;7.002;2022-07-03T06:05:59;9.13;;;3.10;;
5959;SDS011;3006;50.956;7.002;2022-07-03T06:08:27;5.53;;;3.30;;
5959;SDS011;3006;50.956;7.002;2022-07-03T06:10:56;6.67;;;3.47;;
5959;SDS011;3006;50.956;7.002;2022-07-03T06:13:24;6.60;;;3.03;;
5959;SDS011;3006;50.956;7.002;2022-07-03T06:15:52;4.70;;;2.70;;
5959;SDS011;3006;50.956;7.002;2022-07-03T06:18:20;12.43;;;2.97;;
5959;SDS011;3006;50.956;7.002;2022-07-03T06:20:49;5.93;;;2.80;;
5959;SDS011;3006;50.956;7.002;2022-07-03T06:23:17;8.20;;;3.00;;
5959;SDS011;3006;50.956;7.002;2022-07-03T06:26:06;7.03;;;2.43;;
5959;SDS011;3006;50.956;7.002;2022-07-03T06:28:34;7.97;;;3.20;;
5959;SDS011;3006;50.956;7.002;2022-07-03T06:31:02;11.00;;;2.90;;
5959;SDS011;3006;50.956;7.002;2022-07-03T06:33:30;3.97;;;2.57;;
5959;SDS011;3006;50.956;7.002;2022-07-03T06:35:59;10.60;;;3.67;;
5959;SDS011;3006;50.956;7.002;2022-07-03T06:38:28;7.03;;;3.00;;
5959;SDS011;3006;50.956;7.002;2022-07-03T06:40:56;4.50;;;2.60;;
5959;SDS011;3006;50.956;7.002;2022-07-03T06:43:24;10.73;;;2.40;;
5959;SDS011;3006;50.956;7.002;2022-07-03T06:45:52;8.20;;;2.70;;
5959;SDS011;3006;50.956;7.002;2022-07-03T06:48:21;8.77;;;2.30;;
5959;SDS011;3006;50.956;7.002;2022-07-03T06:50:49;4.90;;;2.60;;
5959;SDS011;3006;50.956;7.002;2022-07-03T06:53:18;7.37;;;2.87;;
5959;SDS011;3006;50.956;7.002;2022-07-03T06:55:46;3.97;;;2.40;;
5959;SDS011;3006;50.956;7.002;2022-07-03T06:58:14;4.50;;;2.40;;
5959;SDS011;3006;50.956;7.002;2022-07-03T07:00:42;8.10;;;2.40;;
5959;SDS011;3006;50.956;7.002;2022-07-03T07:03:11;6.13;;;2.23;;
5959;SDS011;3006;50.956;7.002;2022-07-03T07:05:39;8.50;;;2.80;;
5959;SDS011;3006;50.956;7.002;2022-07-03T07:08:07;9.30;;;2.57;;
5959;SDS011;3006;50.956;7.002;2022-07-03T07:10:36;3.20;;;2.57;;
5959;SDS011;3006;50.956;7.002;2022-07-03T07:13:07;7.33;;;2.53;;
5959;SDS011;3006;50.956;7.002;2022-07-03T07:15:36;5.23;;;2.80;;
5959;SDS011;3006;50.956;7.002;2022-07-03T07:18:04;4.77;;;3.00;;
5959;SDS011;3006;50.956;7.002;2022-07-03T07:20:32;7.23;;;2.57;;
5959;SDS011;3006;50.956;7.002;2022-07-03T07:23:00;10.20;;;2.70;;
5959;SDS011;3006;50.956;7.002;2022-07-03T07:25:28;3.10;;;2.50;;
5959;SDS011;3006;50.956;7.002;2022-07-03T07:27:58;8.57;;;3.10;;
5959;SDS011;3006;50.956;7.002;2022-07-03T07:30:26;9.90;;;3.10;;
5959;SDS011;3006;50.956;7.002;2022-07-03T07:32:54;7.07;;;3.30;;
5959;SDS011;3006;50.956;7.002;2022-07-03T07:35:22;9.53;;;3.43;;
5959;SDS011;3006;50.956;7.002;2022-07-03T07:37:50;6.57;;;2.50;;
5959;SDS011;3006;50.956;7.002;2022-07-03T07:40:18;3.40;;;2.93;;
5959;SDS011;3006;50.956;7.002;2022-07-03T07:42:46;5.50;;;2.90;;
5959;SDS011;3006;50.956;7.002;2022-07-03T07:45:16;7.20;;;2.97;;
5959;SDS011;3006;50.956;7.002;2022-07-03T07:47:44;7.10;;;3.07;;
5959;SDS011;3006;50.956;7.002;2022-07-03T07:50:12;4.73;;;2.97;;
5959;SDS011;3006;50.956;7.002;2022-07-03T07:52:41;5.33;;;3.40;;
5959;SDS011;3006;50.956;7.002;2022-07-03T07:55:09;6.13;;;3.17;;
5959;SDS011;3006;50.956;7.002;2022-07-03T07:57:37;9.87;;;3.97;;
5959;SDS011;3006;50.956;7.002;2022-07-03T08:00:07;5.20;;;3.20;;
5959;SDS011;3006;50.956;7.002;2022-07-03T08:02:39;5.17;;;3.20;;
5959;SDS011;3006;50.956;7.002;2022-07-03T08:05:25;7.17;;;3.27;;
5959;SDS011;3006;50.956;7.002;2022-07-03T08:08:06;11.23;;;3.60;;
5959;SDS011;3006;50.956;7.002;2022-07-03T08:10:39;9.87;;;3.07;;
5959;SDS011;3006;50.956;7.002;2022-07-03T08:13:08;7.10;;;3.37;;
5959;SDS011;3006;50.956;7.002;2022-07-03T08:15:38;6.07;;;3.53;;
5959;SDS011;3006;50.956;7.002;2022-07-03T08:18:07;8.33;;;3.27;;
5959;SDS011;3006;50.956;7.002;2022-07-03T08:20:36;7.23;;;3.23;;
5959;SDS011;3006;50.956;7.002;2022-07-03T08:23:05;6.73;;;3.47;;
5959;SDS011;3006;50.956;7.002;2022-07-03T08:25:33;9.83;;;3.67;;
5959;SDS011;3006;50.956;7.002;2022-07-03T08:28:01;9.83;;;4.20;;
5959;SDS011;3006;50.956;7.002;2022-07-03T08:30:29;7.30;;;3.00;;
5959;SDS011;3006;50.956;7.002;2022-07-03T08:32:58;5.23;;;3.43;;
5959;SDS011;3006;50.956;7.002;2022-07-03T08:35:28;5.90;;;3.90;;
5959;SDS011;3006;50.956;7.002;2022-07-03T08:37:56;15.77;;;3.67;;
5959;SDS011;3006;50.956;7.002;2022-07-03T08:40:24;10.20;;;3.63;;
5959;SDS011;3006;50.956;7.002;2022-07-03T08:42:53;10.40;;;4.40;;
5959;SDS011;3006;50.956;7.002;2022-07-03T08:45:23;8.43;;;3.37;;
5959;SDS011;3006;50.956;7.002;2022-07-03T08:47:53;4.60;;;2.97;;
5959;SDS011;3006;50.956;7.002;2022-07-03T08:50:22;6.37;;;3.30;;
5959;SDS011;3006;50.956;7.002;2022-07-03T08:52:51;13.70;;;3.50;;
5959;SDS011;3006;50.956;7.002;2022-07-03T08:55:19;6.37;;;3.10;;
5959;SDS011;3006;50.956;7.002;2022-07-03T08:57:48;4.67;;;3.00;;
5959;SDS011;3006;50.956;7.002;2022-07-03T09:00:17;2.83;;;2.63;;
5959;SDS011;3006;50.956;7.002;2022-07-03T09:02:46;8.30;;;3.80;;
5959;SDS011;3006;50.956;7.002;2022-07-03T09:05:16;7.33;;;2.73;;
5959;SDS011;3006;50.956;7.002;2022-07-03T09:07:46;5.30;;;3.00;;
5959;SDS011;3006;50.956;7.002;2022-07-03T09:10:16;5.10;;;2.73;;
5959;SDS011;3006;50.956;7.002;2022-07-03T09:12:46;6.30;;;2.73;;
5959;SDS011;3006;50.956;7.002;2022-07-03T09:15:15;8.07;;;3.07;;
5959;SDS011;3006;50.956;7.002;2022-07-03T09:17:56;10.87;;;3.03;;
5959;SDS011;3006;50.956;7.002;2022-07-03T09:20:30;5.57;;;3.23;;
5959;SDS011;3006;50.956;7.002;2022-07-03T09:23:08;4.97;;;3.23;;
5959;SDS011;3006;50.956;7.002;2022-07-03T09:25:55;7.07;;;3.40;;
5959;SDS011;3006;50.956;7.002;2022-07-03T09:28:31;4.80;;;2.77;;
5959;SDS011;3006;50.956;7.002;2022-07-03T09:31:10;4.80;;;3.10;;
5959;SDS011;3006;50.956;7.002;2022-07-03T09:33:55;4.40;;;2.60;;
5959;SDS011;3006;50.956;7.002;2022-07-03T09:36:37;5.77;;;2.33;;
5959;SDS011;3006;50.956;7.002;2022-07-03T09:39:10;11.23;;;2.40;;
5959;SDS011;3006;50.956;7.002;2022-07-03T09:41:57;4.23;;;2.37;;
5959;SDS011;3006;50.956;7.002;2022-07-03T09:44:31;2.90;;;2.10;;
5959;SDS011;3006;50.956;7.002;2022-07-03T09:47:07;5.50;;;2.23;;
5959;SDS011;3006;50.956;7.002;2022-07-03T09:49:43;6.13;;;2.40;;
5959;SDS011;3006;50.956;7.002;2022-07-03T09:52:27;9.23;;;3.70;;
5959;SDS011;3006;50.956;7.002;2022-07-03T09:54:57;4.73;;;2.07;;
5959;SDS011;3006;50.956;7.002;2022-07-03T09:57:28;8.03;;;2.53;;
5959;SDS011;3006;50.956;7.002;2022-07-03T10:00:07;3.97;;;2.00;;
5959;SDS011;3006;50.956;7.002;2022-07-03T10:02:50;2.40;;;2.17;;
5959;SDS011;3006;50.956;7.002;2022-07-03T10:05:20;5.20;;;2.03;;
5959;SDS011;3006;50.956;7.002;2022-07-03T10:07:49;8.97;;;2.73;;
5959;SDS011;3006;50.956;7.002;2022-07-03T10:10:18;9.57;;;2.50;;
5959;SDS011;3006;50.956;7.002;2022-07-03T10:12:50;5.67;;;2.30;;
5959;SDS011;3006;50.956;7.002;2022-07-03T10:15:19;3.80;;;1.97;;
5959;SDS011;3006;50.956;7.002;2022-07-03T10:17:49;4.30;;;2.50;;
5959;SDS011;3006;50.956;7.002;2022-07-03T10:20:26;2.90;;;2.00;;
5959;SDS011;3006;50.956;7.002;2022-07-03T10:22:55;5.30;;;2.30;;
5959;SDS011;3006;50.956;7.002;2022-07-03T10:25:24;4.40;;;2.43;;
5959;SDS011;3006;50.956;7.002;2022-07-03T10:27:53;4.50;;;2.17;;
5959;SDS011;3006;50.956;7.002;2022-07-03T10:30:23;5.17;;;1.93;;
5959;SDS011;3006;50.956;7.002;2022-07-03T10:32:52;6.50;;;2.20;;
5959;SDS011;3006;50.956;7.002;2022-07-03T10:35:21;3.90;;;1.97;;
5959;SDS011;3006;50.956;7.002;2022-07-03T10:37:56;5.53;;;2.60;;
5959;SDS011;3006;50.956;7.002;2022-07-03T10:40:48;3.40;;;2.10;;
5959;SDS011;3006;50.956;7.002;2022-07-03T10:43:41;7.97;;;2.20;;
5959;SDS011;3006;50.956;7.002;2022-07-03T10:46:29;2.40;;;1.83;;
5959;SDS011;3006;50.956;7.002;2022-07-03T10:49:00;2.40;;;1.63;;
5959;SDS011;3006;50.956;7.002;2022-07-03T10:51:30;3.47;;;1.90;;
5959;SDS011;3006;50.956;7.002;2022-07-03T10:54:16;2.83;;;1.90;;
5959;SDS011;3006;50.956;7.002;2022-07-03T11:02:50;13.53;;;2.60;;
5959;SDS011;3006;50.956;7.002;2022-07-03T11:05:20;3.23;;;2.03;;
5959;SDS011;3006;50.956;7.002;2022-07-03T11:08:06;4.97;;;1.90;;
5959;SDS011;3006;50.956;7.002;2022-07-03T11:10:39;3.50;;;1.90;;
5959;SDS011;3006;50.956;7.002;2022-07-03T11:13:13;2.40;;;1.90;;
5959;SDS011;3006;50.956;7.002;2022-07-03T11:15:48;5.10;;;1.80;;
5959;SDS011;3006;50.956;7.002;2022-07-03T11:18:20;2.27;;;1.50;;
5959;SDS011;3006;50.956;7.002;2022-07-03T11:21:04;4.97;;;2.47;;
5959;SDS011;3006;50.956;7.002;2022-07-03T11:24:00;2.83;;;1.80;;
5959;SDS011;3006;50.956;7.002;2022-07-03T11:29:55;6.43;;;2.10;;
5959;SDS011;3006;50.956;7.002;2022-07-03T11:35:46;8.07;;;2.20;;
5959;SDS011;3006;50.956;7.002;2022-07-03T11:38:23;5.10;;;2.60;;
5959;SDS011;3006;50.956;7.002;2022-07-03T11:40:55;9.00;;;2.57;;
5959;SDS011;3006;50.956;7.002;2022-07-03T11:43:25;4.90;;;2.10;;
5959;SDS011;3006;50.956;7.002;2022-07-03T11:45:53;3.53;;;1.80;;
5959;SDS011;3006;50.956;7.002;2022-07-03T11:48:24;4.53;;;2.10;;
5959;SDS011;3006;50.956;7.002;2022-07-03T11:50:58;6.90;;;2.30;;
5959;SDS011;3006;50.956;7.002;2022-07-03T11:53:29;7.80;;;2.37;;
5959;SDS011;3006;50.956;7.002;2022-07-03T11:55:58;4.93;;;2.23;;
5959;SDS011;3006;50.956;7.002;2022-07-03T11:58:39;4.10;;;1.77;;
5959;SDS011;3006;50.956;7.002;2022-07-03T12:01:09;2.80;;;1.53;;
5959;SDS011;3006;50.956;7.002;2022-07-03T12:03:38;3.13;;;1.90;;
5959;SDS011;3006;50.956;7.002;2022-07-03T12:06:08;2.03;;;1.70;;
5959;SDS011;3006;50.956;7.002;2022-07-03T12:08:36;4.37;;;1.63;;
5959;SDS011;3006;50.956;7.002;2022-07-03T12:11:08;1.97;;;1.70;;
5959;SDS011;3006;50.956;7.002;2022-07-03T12:13:37;12.17;;;1.90;;
5959;SDS011;3006;50.956;7.002;2022-07-03T12:16:06;2.63;;;1.43;;
5959;SDS011;3006;50.956;7.002;2022-07-03T12:18:46;4.80;;;2.10;;
5959;SDS011;3006;50.956;7.002;2022-07-03T12:21:18;1.60;;;1.40;;
5959;SDS011;3006;50.956;7.002;2022-07-03T12:23:48;5.90;;;1.83;;
5959;SDS011;3006;50.956;7.002;2022-07-03T12:26:26;3.57;;;1.40;;
5959;SDS011;3006;50.956;7.002;2022-07-03T12:28:56;2.93;;;1.77;;
5959;SDS011;3006;50.956;7.002;2022-07-03T12:31:25;1.97;;;1.77;;
5959;SDS011;3006;50.956;7.002;2022-07-03T12:33:55;3.53;;;1.73;;
5959;SDS011;3006;50.956;7.002;2022-07-03T12:36:26;3.37;;;1.63;;
5959;SDS011;3006;50.956;7.002;2022-07-03T12:38:55;2.80;;;1.70;;
5959;SDS011;3006;50.956;7.002;2022-07-03T12:41:26;4.67;;;1.53;;
5959;SDS011;3006;50.956;7.002;2022-07-03T12:43:54;4.47;;;2.20;;
5959;SDS011;3006;50.956;7.002;2022-07-03T12:46:25;4.43;;;3.50;;
5959;SDS011;3006;50.956;7.002;2022-07-03T12:48:56;5.17;;;1.53;;
5959;SDS011;3006;50.956;7.002;2022-07-03T12:51:39;3.97;;;1.97;;
5959;SDS011;3006;50.956;7.002;2022-07-03T12:54:08;2.70;;;1.60;;
5959;SDS011;3006;50.956;7.002;2022-07-03T12:56:38;2.60;;;1.50;;
5959;SDS011;3006;50.956;7.002;2022-07-03T12:59:06;2.13;;;1.30;;
5959;SDS011;3006;50.956;7.002;2022-07-03T13:02:00;7.40;;;1.50;;
5959;SDS011;3006;50.956;7.002;2022-07-03T13:04:30;3.97;;;1.70;;
5959;SDS011;3006;50.956;7.002;2022-07-03T13:07:02;2.77;;;1.70;;
5959;SDS011;3006;50.956;7.002;2022-07-03T13:09:31;5.17;;;1.70;;
5959;SDS011;3006;50.956;7.002;2022-07-03T13:12:00;4.70;;;1.87;;
5959;SDS011;3006;50.956;7.002;2022-07-03T13:14:29;2.37;;;1.50;;
5959;SDS011;3006;50.956;7.002;2022-07-03T13:16:57;4.67;;;1.40;;
5959;SDS011;3006;50.956;7.002;2022-07-03T13:19:27;6.47;;;1.60;;
5959;SDS011;3006;50.956;7.002;2022-07-03T13:21:56;2.80;;;1.40;;
5959;SDS011;3006;50.956;7.002;2022-07-03T13:24:27;2.80;;;1.63;;
5959;SDS011;3006;50.956;7.002;2022-07-03T13:26:55;3.10;;;1.30;;
5959;SDS011;3006;50.956;7.002;2022-07-03T13:29:25;3.90;;;1.30;;
5959;SDS011;3006;50.956;7.002;2022-07-03T13:31:53;5.80;;;1.47;;
5959;SDS011;3006;50.956;7.002;2022-07-03T13:34:22;4.03;;;1.70;;
5959;SDS011;3006;50.956;7.002;2022-07-03T13:36:50;3.00;;;1.57;;
5959;SDS011;3006;50.956;7.002;2022-07-03T13:39:18;2.40;;;1.37;;
5959;SDS011;3006;50.956;7.002;2022-07-03T13:41:48;3.93;;;1.30;;
5959;SDS011;3006;50.956;7.002;2022-07-03T13:44:16;2.47;;;1.20;;
5959;SDS011;3006;50.956;7.002;2022-07-03T13:46:44;2.80;;;1.33;;
5959;SDS011;3006;50.956;7.002;2022-07-03T13:49:17;3.00;;;1.50;;
5959;SDS011;3006;50.956;7.002;2022-07-03T13:51:46;5.00;;;1.43;;
5959;SDS011;3006;50.956;7.002;2022-07-03T13:54:14;3.53;;;1.67;;
5959;SDS011;3006;50.956;7.002;2022-07-03T13:56:42;3.47;;;1.50;;
5959;SDS011;3006;50.956;7.002;2022-07-03T13:59:11;3.13;;;1.50;;
5959;SDS011;3006;50.956;7.002;2022-07-03T14:01:40;2.63;;;1.33;;
5959;SDS011;3006;50.956;7.002;2022-07-03T14:04:08;3.23;;;1.60;;
5959;SDS011;3006;50.956;7.002;2022-07-03T14:06:36;3.20;;;1.40;;
5959;SDS011;3006;50.956;7.002;2022-07-03T14:09:04;2.67;;;1.23;;
5959;SDS011;3006;50.956;7.002;2022-07-03T14:11:33;3.90;;;1.30;;
5959;SDS011;3006;50.956;7.002;2022-07-03T14:14:01;3.23;;;1.60;;
5959;SDS011;3006;50.956;7.002;2022-07-03T14:16:30;3.17;;;1.60;;
5959;SDS011;3006;50.956;7.002;2022-07-03T14:18:58;4.30;;;1.47;;
5959;SDS011;3006;50.956;7.002;2022-07-03T14:21:29;5.43;;;1.07;;
5959;SDS011;3006;50.956;7.002;2022-07-03T14:23:57;2.73;;;2.50;;
5959;SDS011;3006;50.956;7.002;2022-07-03T14:26:26;3.00;;;1.73;;
5959;SDS011;3006;50.956;7.002;2022-07-03T14:29:11;2.40;;;1.20;;
5959;SDS011;3006;50.956;7.002;2022-07-03T14:31:58;2.10;;;1.50;;
5959;SDS011;3006;50.956;7.002;2022-07-03T14:34:44;5.83;;;2.00;;
5959;SDS011;3006;50.956;7.002;2022-07-03T14:37:16;4.03;;;1.80;;
5959;SDS011;3006;50.956;7.002;2022-07-03T14:39:45;1.93;;;1.30;;
5959;SDS011;3006;50.956;7.002;2022-07-03T14:42:14;1.33;;;1.03;;
5959;SDS011;3006;50.956;7.002;2022-07-03T14:44:42;3.93;;;1.63;;
5959;SDS011;3006;50.956;7.002;2022-07-03T14:47:12;1.40;;;1.10;;
5959;SDS011;3006;50.956;7.002;2022-07-03T14:49:41;4.60;;;1.70;;
5959;SDS011;3006;50.956;7.002;2022-07-03T14:52:10;1.63;;;1.40;;
5959;SDS011;3006;50.956;7.002;2022-07-03T14:54:38;1.97;;;1.20;;
5959;SDS011;3006;50.956;7.002;2022-07-03T14:57:12;4.53;;;1.30;;
5959;SDS011;3006;50.956;7.002;2022-07-03T14:59:54;3.03;;;1.43;;
5959;SDS011;3006;50.956;7.002;2022-07-03T15:02:37;3.07;;;1.50;;
5959;SDS011;3006;50.956;7.002;2022-07-03T15:05:11;3.73;;;1.83;;
5959;SDS011;3006;50.956;7.002;2022-07-03T15:07:41;7.93;;;1.43;;
5959;SDS011;3006;50.956;7.002;2022-07-03T15:10:10;7.60;;;1.30;;
5959;SDS011;3006;50.956;7.002;2022-07-03T15:12:42;7.33;;;1.43;;
5959;SDS011;3006;50.956;7.002;2022-07-03T15:15:15;2.53;;;1.13;;
5959;SDS011;3006;50.956;7.002;2022-07-03T15:17:47;5.73;;;1.87;;
5959;SDS011;3006;50.956;7.002;2022-07-03T15:20:17;3.73;;;1.20;;
5959;SDS011;3006;50.956;7.002;2022-07-03T15:22:48;5.13;;;1.60;;
5959;SDS011;3006;50.956;7.002;2022-07-03T15:25:17;7.33;;;1.13;;
5959;SDS011;3006;50.956;7.002;2022-07-03T15:27:49;4.60;;;1.20;;
5959;SDS011;3006;50.956;7.002;2022-07-03T15:30:19;6.73;;;1.20;;
5959;SDS011;3006;50.956;7.002;2022-07-03T15:32:49;9.13;;;1.40;;
5959;SDS011;3006;50.956;7.002;2022-07-03T15:35:18;2.53;;;1.10;;
5959;SDS011;3006;50.956;7.002;2022-07-03T15:37:55;1.13;;;0.93;;
5959;SDS011;3006;50.956;7.002;2022-07-03T15:40:32;2.70;;;1.30;;
5959;SDS011;3006;50.956;7.002;2022-07-03T15:43:08;1.73;;;1.10;;
5959;SDS011;3006;50.956;7.002;2022-07-03T15:45:58;4.73;;;1.27;;
5959;SDS011;3006;50.956;7.002;2022-07-03T15:48:43;3.87;;;1.30;;
5959;SDS011;3006;50.956;7.002;2022-07-03T15:51:18;3.87;;;1.30;;
5959;SDS011;3006;50.956;7.002;2022-07-03T15:53:59;5.00;;;1.37;;
5959;SDS011;3006;50.956;7.002;2022-07-03T15:56:30;2.00;;;1.10;;
5959;SDS011;3006;50.956;7.002;2022-07-03T15:58:59;2.40;;;1.30;;